sensor_id;sensor_type;location;lat;lon;timestamp;P1;durP1;ratioP1;P2;durP2;ratioP2
55268;SDS011;41131;42.990;21.954;2023-04-03T07:56:11;34.40;;;22.83;;
55268;SDS011;41131;42.990;21.954;2023-04-03T07:58:37;29.50;;;17.25;;
55268;SDS011;41131;42.990;21.954;2023-04-03T08:01:03;49.55;;;22.38;;
55268;SDS011;41131;42.990;21.954;2023-04-03T08:03:30;25.98;;;16.80;;
55268;SDS011;41131;42.990;21.954;2023-04-03T08:06:00;32.28;;;23.48;;
55268;SDS011;41131;42.990;21.954;2023-04-03T08:08:27;38.10;;;23.98;;
55268;SDS011;41131;42.990;21.954;2023-04-03T08:10:54;36.25;;;27.90;;
55268;SDS011;41131;42.990;21.954;2023-04-03T08:13:21;40.25;;;23.15;;
55268;SDS011;41131;42.990;21.954;2023-04-03T08:15:47;32.08;;;19.75;;
55268;SDS011;41131;42.990;21.954;2023-04-03T08:18:14;35.58;;;24.75;;
55268;SDS011;41131;42.990;21.954;2023-04-03T08:20:40;23.92;;;18.67;;
55268;SDS011;41131;42.990;21.954;2023-04-03T08:23:07;28.20;;;19.50;;
55268;SDS011;41131;42.990;21.954;2023-04-03T08:25:33;33.75;;;20.98;;
55268;SDS011;41131;42.990;21.954;2023-04-03T08:27:59;34.05;;;21.98;;
55268;SDS011;41131;42.990;21.954;2023-04-03T08:30:27;23.77;;;19.88;;
55268;SDS011;41131;42.990;21.954;2023-04-03T08:32:53;25.80;;;18.67;;
55268;SDS011;41131;42.990;21.954;2023-04-03T08:35:19;23.33;;;18.80;;
55268;SDS011;41131;42.990;21.954;2023-04-03T08:37:45;28.33;;;20.40;;
55268;SDS011;41131;42.990;21.954;2023-04-03T08:40:15;36.30;;;26.48;;
55268;SDS011;41131;42.990;21.954;2023-04-03T08:45:19;23.67;;;19.23;;
55268;SDS011;41131;42.990;21.954;2023-04-03T08:47:59;25.38;;;21.95;;
55268;SDS011;41131;42.990;21.954;2023-04-03T08:50:29;33.20;;;21.48;;
55268;SDS011;41131;42.990;21.954;2023-04-03T08:52:57;38.70;;;22.23;;
55268;SDS011;41131;42.990;21.954;2023-04-03T09:00:44;29.73;;;21.13;;
55268;SDS011;41131;42.990;21.954;2023-04-03T09:03:12;45.88;;;29.58;;
55268;SDS011;41131;42.990;21.954;2023-04-03T09:10:32;45.30;;;27.27;;
55268;SDS011;41131;42.990;21.954;2023-04-03T09:15:32;38.53;;;25.67;;
55268;SDS011;41131;42.990;21.954;2023-04-03T09:18:00;40.45;;;26.98;;
55268;SDS011;41131;42.990;21.954;2023-04-03T09:22:57;36.58;;;28.20;;
55268;SDS011;41131;42.990;21.954;2023-04-03T09:25:27;44.72;;;28.98;;
55268;SDS011;41131;42.990;21.954;2023-04-03T09:27:53;36.08;;;29.10;;
55268;SDS011;41131;42.990;21.954;2023-04-03T09:30:21;33.42;;;25.02;;
55268;SDS011;41131;42.990;21.954;2023-04-03T09:32:48;36.80;;;24.67;;
55268;SDS011;41131;42.990;21.954;2023-04-03T09:37:53;32.55;;;21.67;;
55268;SDS011;41131;42.990;21.954;2023-04-03T09:42:51;30.45;;;22.08;;
55268;SDS011;41131;42.990;21.954;2023-04-03T09:45:33;25.77;;;22.38;;
55268;SDS011;41131;42.990;21.954;2023-04-03T09:48:07;28.15;;;22.77;;
55268;SDS011;41131;42.990;21.954;2023-04-03T09:50:34;28.42;;;20.85;;
55268;SDS011;41131;42.990;21.954;2023-04-03T09:53:05;38.35;;;25.75;;
55268;SDS011;41131;42.990;21.954;2023-04-03T09:55:32;40.95;;;31.27;;
55268;SDS011;41131;42.990;21.954;2023-04-03T09:57:59;44.58;;;29.27;;
55268;SDS011;41131;42.990;21.954;2023-04-03T10:00:26;40.80;;;26.67;;
55268;SDS011;41131;42.990;21.954;2023-04-03T10:02:54;34.22;;;24.92;;
55268;SDS011;41131;42.990;21.954;2023-04-03T10:05:25;31.52;;;24.45;;
55268;SDS011;41131;42.990;21.954;2023-04-03T10:07:51;34.17;;;23.42;;
55268;SDS011;41131;42.990;21.954;2023-04-03T10:10:19;31.83;;;21.92;;
55268;SDS011;41131;42.990;21.954;2023-04-03T10:12:47;51.53;;;32.22;;
55268;SDS011;41131;42.990;21.954;2023-04-03T10:15:15;34.30;;;25.23;;
55268;SDS011;41131;42.990;21.954;2023-04-03T10:17:57;40.78;;;24.98;;
55268;SDS011;41131;42.990;21.954;2023-04-03T10:23:00;35.20;;;24.88;;
55268;SDS011;41131;42.990;21.954;2023-04-03T10:26:13;35.58;;;23.27;;
55268;SDS011;41131;42.990;21.954;2023-04-03T10:41:07;90.45;;;27.52;;
55268;SDS011;41131;42.990;21.954;2023-04-03T10:43:49;37.30;;;24.15;;
55268;SDS011;41131;42.990;21.954;2023-04-03T10:46:20;32.63;;;23.23;;
55268;SDS011;41131;42.990;21.954;2023-04-03T10:54:00;160.77;;;29.75;;
55268;SDS011;41131;42.990;21.954;2023-04-03T11:01:44;36.10;;;21.55;;
55268;SDS011;41131;42.990;21.954;2023-04-03T11:04:11;32.03;;;21.88;;
55268;SDS011;41131;42.990;21.954;2023-04-03T11:06:39;33.63;;;24.02;;
55268;SDS011;41131;42.990;21.954;2023-04-03T11:09:10;30.00;;;23.13;;
55268;SDS011;41131;42.990;21.954;2023-04-03T11:11:38;40.58;;;24.25;;
55268;SDS011;41131;42.990;21.954;2023-04-03T11:16:53;37.95;;;24.10;;
55268;SDS011;41131;42.990;21.954;2023-04-03T11:19:34;46.83;;;24.83;;
55268;SDS011;41131;42.990;21.954;2023-04-03T11:22:13;38.53;;;25.05;;
55268;SDS011;41131;42.990;21.954;2023-04-03T11:24:42;34.65;;;26.13;;
55268;SDS011;41131;42.990;21.954;2023-04-03T11:27:11;33.72;;;26.23;;
55268;SDS011;41131;42.990;21.954;2023-04-03T11:29:41;36.90;;;25.48;;
55268;SDS011;41131;42.990;21.954;2023-04-03T11:34:45;38.65;;;25.17;;
55268;SDS011;41131;42.990;21.954;2023-04-03T11:39:38;34.38;;;24.88;;
55268;SDS011;41131;42.990;21.954;2023-04-03T11:44:52;41.30;;;25.38;;
55268;SDS011;41131;42.990;21.954;2023-04-03T11:47:45;29.98;;;21.67;;
55268;SDS011;41131;42.990;21.954;2023-04-03T12:08:44;36.00;;;24.05;;
55268;SDS011;41131;42.990;21.954;2023-04-03T12:16:30;46.88;;;30.88;;
55268;SDS011;41131;42.990;21.954;2023-04-03T12:18:59;44.53;;;30.85;;
55268;SDS011;41131;42.990;21.954;2023-04-03T12:26:48;36.38;;;26.60;;
55268;SDS011;41131;42.990;21.954;2023-04-03T12:34:56;30.35;;;22.95;;
55268;SDS011;41131;42.990;21.954;2023-04-03T12:40:09;34.60;;;24.95;;
55268;SDS011;41131;42.990;21.954;2023-04-03T12:45:21;33.45;;;23.92;;
55268;SDS011;41131;42.990;21.954;2023-04-03T12:47:51;35.28;;;26.00;;
55268;SDS011;41131;42.990;21.954;2023-04-03T12:50:25;38.22;;;28.27;;
55268;SDS011;41131;42.990;21.954;2023-04-03T12:52:59;52.00;;;35.60;;
55268;SDS011;41131;42.990;21.954;2023-04-03T12:55:27;40.83;;;30.70;;
55268;SDS011;41131;42.990;21.954;2023-04-03T12:57:53;39.13;;;29.15;;
55268;SDS011;41131;42.990;21.954;2023-04-03T13:02:49;36.60;;;29.15;;
55268;SDS011;41131;42.990;21.954;2023-04-03T13:05:16;40.70;;;28.25;;
55268;SDS011;41131;42.990;21.954;2023-04-03T13:07:43;44.88;;;30.17;;
55268;SDS011;41131;42.990;21.954;2023-04-03T13:12:45;39.97;;;30.48;;
55268;SDS011;41131;42.990;21.954;2023-04-03T13:15:12;44.17;;;35.47;;
55268;SDS011;41131;42.990;21.954;2023-04-03T13:17:39;39.47;;;31.13;;
55268;SDS011;41131;42.990;21.954;2023-04-03T13:22:53;41.78;;;32.38;;
55268;SDS011;41131;42.990;21.954;2023-04-03T13:25:20;39.40;;;31.17;;
55268;SDS011;41131;42.990;21.954;2023-04-03T13:27:47;39.15;;;31.88;;
55268;SDS011;41131;42.990;21.954;2023-04-03T13:30:22;38.92;;;30.65;;
55268;SDS011;41131;42.990;21.954;2023-04-03T13:32:48;39.53;;;31.10;;
55268;SDS011;41131;42.990;21.954;2023-04-03T13:35:27;37.38;;;29.98;;
55268;SDS011;41131;42.990;21.954;2023-04-03T13:37:54;39.03;;;30.65;;
55268;SDS011;41131;42.990;21.954;2023-04-03T13:40:21;53.08;;;41.65;;
55268;SDS011;41131;42.990;21.954;2023-04-03T13:42:48;54.17;;;41.28;;
55268;SDS011;41131;42.990;21.954;2023-04-03T13:45:28;44.05;;;34.15;;
55268;SDS011;41131;42.990;21.954;2023-04-03T13:50:59;47.15;;;36.95;;
55268;SDS011;41131;42.990;21.954;2023-04-03T13:53:26;47.30;;;37.65;;
55268;SDS011;41131;42.990;21.954;2023-04-03T13:55:58;47.88;;;36.00;;
55268;SDS011;41131;42.990;21.954;2023-04-03T13:58:25;45.08;;;35.80;;
55268;SDS011;41131;42.990;21.954;2023-04-03T14:00:54;51.97;;;37.78;;
55268;SDS011;41131;42.990;21.954;2023-04-03T14:03:22;52.10;;;41.50;;
55268;SDS011;41131;42.990;21.954;2023-04-03T14:05:48;53.72;;;41.90;;
55268;SDS011;41131;42.990;21.954;2023-04-03T14:08:14;50.78;;;40.08;;
55268;SDS011;41131;42.990;21.954;2023-04-03T14:10:43;60.50;;;45.38;;
55268;SDS011;41131;42.990;21.954;2023-04-03T14:13:13;54.35;;;42.13;;
55268;SDS011;41131;42.990;21.954;2023-04-03T14:15:39;59.28;;;45.42;;
55268;SDS011;41131;42.990;21.954;2023-04-03T14:18:06;52.28;;;41.60;;
55268;SDS011;41131;42.990;21.954;2023-04-03T14:20:32;54.13;;;41.65;;
55268;SDS011;41131;42.990;21.954;2023-04-03T14:22:58;54.03;;;43.63;;
55268;SDS011;41131;42.990;21.954;2023-04-03T14:25:24;51.60;;;38.13;;
55268;SDS011;41131;42.990;21.954;2023-04-03T14:27:51;49.70;;;39.28;;
55268;SDS011;41131;42.990;21.954;2023-04-03T14:30:28;57.75;;;43.25;;
55268;SDS011;41131;42.990;21.954;2023-04-03T14:32:54;57.78;;;41.25;;
55268;SDS011;41131;42.990;21.954;2023-04-03T14:35:21;54.30;;;41.17;;
55268;SDS011;41131;42.990;21.954;2023-04-03T14:37:48;52.28;;;39.95;;
55268;SDS011;41131;42.990;21.954;2023-04-03T14:40:15;57.38;;;42.28;;
55268;SDS011;41131;42.990;21.954;2023-04-03T14:42:44;54.38;;;43.25;;
55268;SDS011;41131;42.990;21.954;2023-04-03T14:45:12;53.20;;;40.95;;
55268;SDS011;41131;42.990;21.954;2023-04-03T14:47:40;69.30;;;53.40;;
55268;SDS011;41131;42.990;21.954;2023-04-03T14:50:11;52.55;;;40.17;;
55268;SDS011;41131;42.990;21.954;2023-04-03T14:52:38;66.38;;;50.08;;
55268;SDS011;41131;42.990;21.954;2023-04-03T14:55:04;61.88;;;48.53;;
55268;SDS011;41131;42.990;21.954;2023-04-03T14:57:31;62.70;;;50.20;;
55268;SDS011;41131;42.990;21.954;2023-04-03T15:00:01;51.95;;;41.13;;
55268;SDS011;41131;42.990;21.954;2023-04-03T15:02:36;50.30;;;38.67;;
55268;SDS011;41131;42.990;21.954;2023-04-03T15:05:04;56.80;;;44.17;;
55268;SDS011;41131;42.990;21.954;2023-04-03T15:07:32;58.28;;;43.78;;
55268;SDS011;41131;42.990;21.954;2023-04-03T15:10:02;54.33;;;40.55;;
55268;SDS011;41131;42.990;21.954;2023-04-03T15:12:28;51.83;;;40.13;;
55268;SDS011;41131;42.990;21.954;2023-04-03T15:14:54;46.63;;;36.33;;
55268;SDS011;41131;42.990;21.954;2023-04-03T15:17:21;46.97;;;35.40;;
55268;SDS011;41131;42.990;21.954;2023-04-03T15:19:48;61.03;;;46.70;;
55268;SDS011;41131;42.990;21.954;2023-04-03T15:22:15;59.70;;;43.15;;
55268;SDS011;41131;42.990;21.954;2023-04-03T15:24:42;55.08;;;40.20;;
55268;SDS011;41131;42.990;21.954;2023-04-03T15:27:08;52.47;;;39.85;;
55268;SDS011;41131;42.990;21.954;2023-04-03T15:29:34;54.28;;;39.38;;
55268;SDS011;41131;42.990;21.954;2023-04-03T15:32:00;47.60;;;35.55;;
55268;SDS011;41131;42.990;21.954;2023-04-03T15:34:27;38.17;;;31.27;;
55268;SDS011;41131;42.990;21.954;2023-04-03T15:36:53;52.95;;;36.40;;
55268;SDS011;41131;42.990;21.954;2023-04-03T15:39:20;50.67;;;39.20;;
55268;SDS011;41131;42.990;21.954;2023-04-03T15:41:46;45.40;;;34.72;;
55268;SDS011;41131;42.990;21.954;2023-04-03T15:44:12;60.33;;;43.53;;
55268;SDS011;41131;42.990;21.954;2023-04-03T15:46:38;50.15;;;36.60;;
55268;SDS011;41131;42.990;21.954;2023-04-03T15:49:06;58.08;;;42.92;;
55268;SDS011;41131;42.990;21.954;2023-04-03T15:51:32;47.63;;;37.88;;
55268;SDS011;41131;42.990;21.954;2023-04-03T15:53:58;49.08;;;38.38;;
55268;SDS011;41131;42.990;21.954;2023-04-03T15:56:24;46.00;;;35.58;;
55268;SDS011;41131;42.990;21.954;2023-04-03T15:58:50;49.65;;;33.83;;
55268;SDS011;41131;42.990;21.954;2023-04-03T16:01:16;51.55;;;37.22;;
55268;SDS011;41131;42.990;21.954;2023-04-03T16:03:42;46.60;;;37.13;;
55268;SDS011;41131;42.990;21.954;2023-04-03T16:06:16;44.78;;;34.90;;
55268;SDS011;41131;42.990;21.954;2023-04-03T16:08:43;45.03;;;36.42;;
55268;SDS011;41131;42.990;21.954;2023-04-03T16:11:09;48.58;;;38.15;;
55268;SDS011;41131;42.990;21.954;2023-04-03T16:13:36;41.63;;;33.03;;
55268;SDS011;41131;42.990;21.954;2023-04-03T16:16:02;34.05;;;28.98;;
55268;SDS011;41131;42.990;21.954;2023-04-03T16:18:28;32.13;;;26.88;;
55268;SDS011;41131;42.990;21.954;2023-04-03T16:20:55;37.42;;;29.67;;
55268;SDS011;41131;42.990;21.954;2023-04-03T16:23:21;37.38;;;29.63;;
55268;SDS011;41131;42.990;21.954;2023-04-03T16:25:47;34.53;;;28.90;;
55268;SDS011;41131;42.990;21.954;2023-04-03T16:28:14;36.38;;;29.75;;
55268;SDS011;41131;42.990;21.954;2023-04-03T16:30:42;40.47;;;31.23;;
55268;SDS011;41131;42.990;21.954;2023-04-03T16:33:09;38.40;;;31.08;;
55268;SDS011;41131;42.990;21.954;2023-04-03T16:35:37;35.95;;;30.77;;
55268;SDS011;41131;42.990;21.954;2023-04-03T16:38:03;40.42;;;32.03;;
55268;SDS011;41131;42.990;21.954;2023-04-03T16:40:29;40.72;;;30.33;;
55268;SDS011;41131;42.990;21.954;2023-04-03T16:42:55;37.83;;;29.55;;
55268;SDS011;41131;42.990;21.954;2023-04-03T16:45:21;34.70;;;28.27;;
55268;SDS011;41131;42.990;21.954;2023-04-03T16:47:48;48.42;;;35.10;;
55268;SDS011;41131;42.990;21.954;2023-04-03T16:50:14;38.80;;;30.75;;
55268;SDS011;41131;42.990;21.954;2023-04-03T16:52:45;36.45;;;29.50;;
55268;SDS011;41131;42.990;21.954;2023-04-03T16:55:11;35.45;;;27.95;;
55268;SDS011;41131;42.990;21.954;2023-04-03T16:57:37;34.65;;;27.63;;
55268;SDS011;41131;42.990;21.954;2023-04-03T17:00:04;36.88;;;30.70;;
55268;SDS011;41131;42.990;21.954;2023-04-03T17:02:30;33.95;;;29.08;;
55268;SDS011;41131;42.990;21.954;2023-04-03T17:04:56;42.03;;;31.60;;
55268;SDS011;41131;42.990;21.954;2023-04-03T17:07:23;45.85;;;33.95;;
55268;SDS011;41131;42.990;21.954;2023-04-03T17:09:50;45.60;;;33.22;;
55268;SDS011;41131;42.990;21.954;2023-04-03T17:12:18;36.92;;;29.50;;
55268;SDS011;41131;42.990;21.954;2023-04-03T17:14:44;37.97;;;30.85;;
55268;SDS011;41131;42.990;21.954;2023-04-03T17:17:12;37.50;;;29.80;;
55268;SDS011;41131;42.990;21.954;2023-04-03T17:19:38;41.35;;;29.88;;
55268;SDS011;41131;42.990;21.954;2023-04-03T17:22:05;52.65;;;39.28;;
55268;SDS011;41131;42.990;21.954;2023-04-03T17:24:32;42.03;;;31.48;;
55268;SDS011;41131;42.990;21.954;2023-04-03T17:27:02;27.95;;;24.20;;
55268;SDS011;41131;42.990;21.954;2023-04-03T17:29:28;36.97;;;29.23;;
55268;SDS011;41131;42.990;21.954;2023-04-03T17:31:54;38.45;;;32.45;;
55268;SDS011;41131;42.990;21.954;2023-04-03T17:34:20;31.98;;;25.85;;
55268;SDS011;41131;42.990;21.954;2023-04-03T17:36:46;41.50;;;34.20;;
55268;SDS011;41131;42.990;21.954;2023-04-03T17:39:13;32.05;;;25.92;;
55268;SDS011;41131;42.990;21.954;2023-04-03T17:41:39;52.33;;;37.90;;
55268;SDS011;41131;42.990;21.954;2023-04-03T17:44:05;33.95;;;26.55;;
55268;SDS011;41131;42.990;21.954;2023-04-03T17:46:31;46.95;;;36.97;;
55268;SDS011;41131;42.990;21.954;2023-04-03T17:48:57;37.40;;;28.67;;
55268;SDS011;41131;42.990;21.954;2023-04-03T17:51:24;29.15;;;23.73;;
55268;SDS011;41131;42.990;21.954;2023-04-03T17:53:50;42.17;;;32.30;;
55268;SDS011;41131;42.990;21.954;2023-04-03T17:56:17;39.20;;;30.35;;
55268;SDS011;41131;42.990;21.954;2023-04-03T17:58:44;35.13;;;28.50;;
55268;SDS011;41131;42.990;21.954;2023-04-03T18:01:23;82.75;;;55.17;;
55268;SDS011;41131;42.990;21.954;2023-04-03T18:03:54;43.03;;;32.15;;
55268;SDS011;41131;42.990;21.954;2023-04-03T18:06:21;55.15;;;39.17;;
55268;SDS011;41131;42.990;21.954;2023-04-03T18:08:49;28.25;;;24.35;;
55268;SDS011;41131;42.990;21.954;2023-04-03T18:11:17;30.63;;;24.85;;
55268;SDS011;41131;42.990;21.954;2023-04-03T18:13:46;57.47;;;35.20;;
55268;SDS011;41131;42.990;21.954;2023-04-03T18:16:12;39.08;;;27.55;;
55268;SDS011;41131;42.990;21.954;2023-04-03T18:18:39;61.97;;;39.30;;
55268;SDS011;41131;42.990;21.954;2023-04-03T18:21:07;30.50;;;23.88;;
55268;SDS011;41131;42.990;21.954;2023-04-03T18:23:34;36.33;;;29.80;;
55268;SDS011;41131;42.990;21.954;2023-04-03T18:26:10;37.35;;;32.55;;
55268;SDS011;41131;42.990;21.954;2023-04-03T18:28:38;70.97;;;38.83;;
55268;SDS011;41131;42.990;21.954;2023-04-03T18:31:15;30.58;;;23.77;;
55268;SDS011;41131;42.990;21.954;2023-04-03T18:33:43;34.13;;;25.33;;
55268;SDS011;41131;42.990;21.954;2023-04-03T18:36:09;29.70;;;22.08;;
55268;SDS011;41131;42.990;21.954;2023-04-03T18:38:36;106.03;;;56.60;;
55268;SDS011;41131;42.990;21.954;2023-04-03T18:41:02;30.88;;;24.13;;
55268;SDS011;41131;42.990;21.954;2023-04-03T18:43:31;32.55;;;25.40;;
55268;SDS011;41131;42.990;21.954;2023-04-03T18:45:57;43.10;;;33.38;;
55268;SDS011;41131;42.990;21.954;2023-04-03T18:48:23;39.20;;;31.30;;
55268;SDS011;41131;42.990;21.954;2023-04-03T18:50:49;31.35;;;25.83;;
55268;SDS011;41131;42.990;21.954;2023-04-03T18:53:16;38.20;;;31.02;;
55268;SDS011;41131;42.990;21.954;2023-04-03T18:55:42;28.38;;;24.92;;
55268;SDS011;41131;42.990;21.954;2023-04-03T18:58:09;30.02;;;25.17;;
55268;SDS011;41131;42.990;21.954;2023-04-03T19:00:35;26.90;;;22.58;;
55268;SDS011;41131;42.990;21.954;2023-04-03T19:03:03;31.00;;;26.15;;
55268;SDS011;41131;42.990;21.954;2023-04-03T19:05:29;37.05;;;28.85;;
55268;SDS011;41131;42.990;21.954;2023-04-03T19:08:02;43.08;;;33.20;;
55268;SDS011;41131;42.990;21.954;2023-04-03T19:10:28;36.00;;;28.52;;
55268;SDS011;41131;42.990;21.954;2023-04-03T19:12:54;101.88;;;64.43;;
55268;SDS011;41131;42.990;21.954;2023-04-03T19:15:20;27.38;;;22.45;;
55268;SDS011;41131;42.990;21.954;2023-04-03T19:17:47;37.20;;;29.30;;
55268;SDS011;41131;42.990;21.954;2023-04-03T19:20:13;34.78;;;27.58;;
55268;SDS011;41131;42.990;21.954;2023-04-03T19:22:39;44.10;;;36.17;;
55268;SDS011;41131;42.990;21.954;2023-04-03T19:25:06;33.03;;;27.00;;
55268;SDS011;41131;42.990;21.954;2023-04-03T19:27:34;25.15;;;21.10;;
55268;SDS011;41131;42.990;21.954;2023-04-03T19:30:00;39.58;;;31.30;;
55268;SDS011;41131;42.990;21.954;2023-04-03T19:32:26;28.35;;;23.20;;
55268;SDS011;41131;42.990;21.954;2023-04-03T19:34:53;35.17;;;28.27;;
55268;SDS011;41131;42.990;21.954;2023-04-03T19:37:19;30.85;;;24.20;;
55268;SDS011;41131;42.990;21.954;2023-04-03T19:39:45;33.65;;;25.17;;
55268;SDS011;41131;42.990;21.954;2023-04-03T19:42:11;76.88;;;40.90;;
55268;SDS011;41131;42.990;21.954;2023-04-03T19:44:37;65.13;;;35.55;;
55268;SDS011;41131;42.990;21.954;2023-04-03T19:47:04;269.48;;;109.68;;
55268;SDS011;41131;42.990;21.954;2023-04-03T19:49:30;63.85;;;33.58;;
55268;SDS011;41131;42.990;21.954;2023-04-03T19:51:56;155.43;;;58.33;;
55268;SDS011;41131;42.990;21.954;2023-04-03T19:54:22;105.90;;;49.40;;
55268;SDS011;41131;42.990;21.954;2023-04-03T19:56:48;54.05;;;32.80;;
55268;SDS011;41131;42.990;21.954;2023-04-03T19:59:15;57.35;;;35.42;;
55268;SDS011;41131;42.990;21.954;2023-04-03T20:01:42;109.30;;;52.60;;
55268;SDS011;41131;42.990;21.954;2023-04-03T20:04:10;81.20;;;43.80;;
55268;SDS011;41131;42.990;21.954;2023-04-03T20:06:36;93.30;;;48.90;;
55268;SDS011;41131;42.990;21.954;2023-04-03T20:09:02;133.00;;;57.45;;
55268;SDS011;41131;42.990;21.954;2023-04-03T20:11:28;35.05;;;25.42;;
55268;SDS011;41131;42.990;21.954;2023-04-03T20:13:54;69.10;;;39.00;;
55268;SDS011;41131;42.990;21.954;2023-04-03T20:16:20;21.27;;;16.25;;
55268;SDS011;41131;42.990;21.954;2023-04-03T20:18:49;33.50;;;22.13;;
55268;SDS011;41131;42.990;21.954;2023-04-03T20:21:16;56.83;;;25.65;;
55268;SDS011;41131;42.990;21.954;2023-04-03T20:23:42;37.50;;;24.30;;
55268;SDS011;41131;42.990;21.954;2023-04-03T20:26:10;43.65;;;25.52;;
55268;SDS011;41131;42.990;21.954;2023-04-03T20:28:47;25.58;;;19.27;;
55268;SDS011;41131;42.990;21.954;2023-04-03T20:31:13;31.00;;;19.40;;
55268;SDS011;41131;42.990;21.954;2023-04-03T20:33:39;69.93;;;39.63;;
55268;SDS011;41131;42.990;21.954;2023-04-03T20:36:06;77.38;;;45.58;;
55268;SDS011;41131;42.990;21.954;2023-04-03T20:38:33;33.58;;;22.38;;
55268;SDS011;41131;42.990;21.954;2023-04-03T20:40:59;19.77;;;14.82;;
55268;SDS011;41131;42.990;21.954;2023-04-03T20:43:25;32.10;;;23.02;;
55268;SDS011;41131;42.990;21.954;2023-04-03T20:45:52;28.02;;;19.38;;
55268;SDS011;41131;42.990;21.954;2023-04-03T20:48:18;26.60;;;19.00;;
55268;SDS011;41131;42.990;21.954;2023-04-03T20:50:45;19.55;;;16.17;;
55268;SDS011;41131;42.990;21.954;2023-04-03T20:53:11;19.05;;;13.73;;
55268;SDS011;41131;42.990;21.954;2023-04-03T20:55:38;25.42;;;17.38;;
55268;SDS011;41131;42.990;21.954;2023-04-03T20:58:05;19.98;;;15.40;;
55268;SDS011;41131;42.990;21.954;2023-04-03T21:00:31;18.73;;;13.02;;
55268;SDS011;41131;42.990;21.954;2023-04-03T21:02:57;29.70;;;20.38;;
55268;SDS011;41131;42.990;21.954;2023-04-03T21:05:26;25.27;;;16.50;;
55268;SDS011;41131;42.990;21.954;2023-04-03T21:21:02;74.50;;;51.50;;
55268;SDS011;41131;42.990;21.954;2023-04-03T21:23:29;82.25;;;53.53;;
55268;SDS011;41131;42.990;21.954;2023-04-03T21:25:56;135.95;;;88.10;;
55268;SDS011;41131;42.990;21.954;2023-04-03T21:28:23;119.50;;;63.63;;
55268;SDS011;41131;42.990;21.954;2023-04-03T21:30:50;131.00;;;65.88;;
55268;SDS011;41131;42.990;21.954;2023-04-03T21:33:16;74.43;;;42.30;;
55268;SDS011;41131;42.990;21.954;2023-04-03T21:35:42;25.35;;;16.95;;
55268;SDS011;41131;42.990;21.954;2023-04-03T21:38:08;44.90;;;27.17;;
55268;SDS011;41131;42.990;21.954;2023-04-03T21:40:35;38.58;;;24.90;;
55268;SDS011;41131;42.990;21.954;2023-04-03T21:43:01;23.20;;;15.30;;
55268;SDS011;41131;42.990;21.954;2023-04-03T21:45:29;32.15;;;21.23;;
55268;SDS011;41131;42.990;21.954;2023-04-03T21:47:55;32.08;;;21.40;;
55268;SDS011;41131;42.990;21.954;2023-04-03T21:50:22;21.08;;;14.20;;
55268;SDS011;41131;42.990;21.954;2023-04-03T21:52:51;25.23;;;17.10;;
55268;SDS011;41131;42.990;21.954;2023-04-03T21:55:18;42.63;;;26.27;;
55268;SDS011;41131;42.990;21.954;2023-04-03T21:57:48;31.48;;;18.20;;
55268;SDS011;41131;42.990;21.954;2023-04-03T22:00:18;48.42;;;28.50;;
55268;SDS011;41131;42.990;21.954;2023-04-03T22:02:45;40.80;;;22.63;;
55268;SDS011;41131;42.990;21.954;2023-04-03T22:05:11;27.52;;;16.27;;
55268;SDS011;41131;42.990;21.954;2023-04-03T22:07:37;24.98;;;14.43;;
55268;SDS011;41131;42.990;21.954;2023-04-03T22:10:03;44.55;;;25.63;;
55268;SDS011;41131;42.990;21.954;2023-04-03T22:12:30;32.67;;;18.73;;
55268;SDS011;41131;42.990;21.954;2023-04-03T22:14:56;48.50;;;27.38;;
55268;SDS011;41131;42.990;21.954;2023-04-03T22:17:22;43.72;;;25.38;;
55268;SDS011;41131;42.990;21.954;2023-04-03T22:19:48;26.80;;;15.57;;
55268;SDS011;41131;42.990;21.954;2023-04-03T22:22:14;46.22;;;27.83;;
55268;SDS011;41131;42.990;21.954;2023-04-03T22:24:41;32.78;;;19.50;;
55268;SDS011;41131;42.990;21.954;2023-04-03T22:27:07;28.45;;;17.50;;
55268;SDS011;41131;42.990;21.954;2023-04-03T22:29:33;12.85;;;8.07;;
55268;SDS011;41131;42.990;21.954;2023-04-03T22:32:00;18.27;;;12.85;;
55268;SDS011;41131;42.990;21.954;2023-04-03T22:34:26;15.05;;;9.30;;
55268;SDS011;41131;42.990;21.954;2023-04-03T22:36:52;13.73;;;7.60;;
55268;SDS011;41131;42.990;21.954;2023-04-03T22:39:18;14.15;;;8.73;;
55268;SDS011;41131;42.990;21.954;2023-04-03T22:41:44;16.35;;;10.32;;
55268;SDS011;41131;42.990;21.954;2023-04-03T22:44:11;10.48;;;6.30;;
55268;SDS011;41131;42.990;21.954;2023-04-03T22:46:37;16.05;;;10.60;;
55268;SDS011;41131;42.990;21.954;2023-04-03T22:49:03;13.63;;;8.52;;
55268;SDS011;41131;42.990;21.954;2023-04-03T22:51:29;15.25;;;9.48;;
55268;SDS011;41131;42.990;21.954;2023-04-03T22:53:55;10.65;;;6.70;;
55268;SDS011;41131;42.990;21.954;2023-04-03T22:56:21;12.73;;;8.65;;
55268;SDS011;41131;42.990;21.954;2023-04-03T22:58:47;17.05;;;10.02;;
55268;SDS011;41131;42.990;21.954;2023-04-03T23:01:15;11.02;;;7.22;;
55268;SDS011;41131;42.990;21.954;2023-04-03T23:03:43;10.30;;;6.40;;
55268;SDS011;41131;42.990;21.954;2023-04-03T23:06:09;15.13;;;8.45;;
55268;SDS011;41131;42.990;21.954;2023-04-03T23:08:37;12.00;;;6.93;;
55268;SDS011;41131;42.990;21.954;2023-04-03T23:11:03;16.50;;;9.85;;
55268;SDS011;41131;42.990;21.954;2023-04-03T23:13:31;13.23;;;8.68;;
55268;SDS011;41131;42.990;21.954;2023-04-03T23:15:58;14.32;;;8.93;;
55268;SDS011;41131;42.990;21.954;2023-04-03T23:18:25;6.47;;;4.10;;
55268;SDS011;41131;42.990;21.954;2023-04-03T23:20:53;6.80;;;4.30;;
55268;SDS011;41131;42.990;21.954;2023-04-03T23:23:20;7.13;;;4.22;;
55268;SDS011;41131;42.990;21.954;2023-04-03T23:28:18;12.18;;;6.28;;
55268;SDS011;41131;42.990;21.954;2023-04-03T23:30:44;10.90;;;4.93;;
55268;SDS011;41131;42.990;21.954;2023-04-03T23:33:11;13.10;;;6.25;;
55268;SDS011;41131;42.990;21.954;2023-04-03T23:35:43;9.38;;;4.88;;
55268;SDS011;41131;42.990;21.954;2023-04-03T23:38:11;7.20;;;3.80;;
55268;SDS011;41131;42.990;21.954;2023-04-03T23:40:38;5.25;;;3.00;;
55268;SDS011;41131;42.990;21.954;2023-04-03T23:43:05;8.13;;;4.15;;
55268;SDS011;41131;42.990;21.954;2023-04-03T23:45:32;7.25;;;4.22;;
55268;SDS011;41131;42.990;21.954;2023-04-03T23:47:58;5.95;;;3.13;;
55268;SDS011;41131;42.990;21.954;2023-04-03T23:50:24;4.82;;;2.40;;
55268;SDS011;41131;42.990;21.954;2023-04-03T23:52:52;5.97;;;3.85;;
55268;SDS011;41131;42.990;21.954;2023-04-03T23:55:18;8.82;;;4.45;;
55268;SDS011;41131;42.990;21.954;2023-04-03T23:57:44;10.13;;;5.00;;
